createdAt,value
2022-09-20T00:02:32.287Z,2.60
2022-09-20T00:05:05.572Z,2.90
2022-09-20T00:07:38.531Z,2.80
2022-09-20T00:10:13.030Z,2.60
2022-09-20T00:12:45.607Z,2.30
2022-09-20T00:15:18.704Z,2.40
2022-09-20T00:17:51.887Z,2.60
2022-09-20T00:20:24.828Z,2.50
2022-09-20T00:22:57.614Z,2.40
2022-09-20T00:25:30.825Z,2.30
2022-09-20T00:28:03.904Z,1.90
2022-09-20T00:30:37.332Z,2.20
2022-09-20T00:33:10.219Z,2.40
2022-09-20T00:35:45.870Z,2.20
2022-09-20T00:38:19.122Z,1.60
2022-09-20T00:40:51.947Z,2.10
2022-09-20T00:43:42.724Z,2.10
2022-09-20T00:46:27.133Z,2.10
2022-09-20T00:49:05.565Z,2.20
2022-09-20T00:51:42.922Z,2.30
2022-09-20T00:54:20.678Z,2.60
2022-09-20T00:56:54.832Z,2.30
2022-09-20T00:59:32.046Z,2.20
2022-09-20T01:02:13.305Z,2.30
2022-09-20T01:04:48.225Z,2.20
2022-09-20T01:07:23.696Z,2.00
2022-09-20T01:09:56.892Z,2.10
2022-09-20T01:12:34.864Z,2.10
2022-09-20T01:15:12.004Z,1.70
2022-09-20T01:17:48.388Z,2.00
2022-09-20T01:20:27.071Z,1.90
2022-09-20T01:23:32.789Z,2.20
2022-09-20T01:26:46.017Z,1.90
2022-09-20T01:29:35.590Z,2.30
2022-09-20T01:32:18.731Z,2.00
2022-09-20T01:35:01.433Z,1.90
2022-09-20T01:37:44.967Z,1.80
2022-09-20T01:40:29.011Z,2.10
2022-09-20T01:43:10.597Z,2.20
2022-09-20T01:45:49.923Z,2.30
2022-09-20T01:48:38.897Z,2.20
2022-09-20T01:51:47.453Z,1.90
2022-09-20T01:55:02.185Z,1.90
2022-09-20T01:58:30.779Z,2.00
2022-09-20T02:01:47.693Z,2.10
2022-09-20T02:04:45.159Z,2.00
2022-09-20T02:07:49.288Z,2.10
2022-09-20T02:11:14.789Z,1.90
2022-09-20T02:14:30.235Z,2.30
2022-09-20T02:17:12.282Z,2.10
2022-09-20T02:20:24.541Z,2.20
2022-09-20T02:23:17.839Z,2.50
2022-09-20T02:26:12.319Z,2.50
2022-09-20T02:28:57.381Z,2.90
2022-09-20T02:31:48.372Z,2.30
2022-09-20T02:34:43.212Z,1.90
2022-09-20T02:37:40.262Z,2.50
2022-09-20T02:40:33.762Z,2.30
2022-09-20T02:43:15.999Z,2.50
2022-09-20T02:45:56.289Z,2.90
2022-09-20T02:48:41.477Z,2.40
2022-09-20T02:51:23.254Z,2.50
2022-09-20T02:54:08.018Z,2.20
2022-09-20T02:56:49.016Z,2.20
2022-09-20T02:59:31.743Z,2.30
2022-09-20T03:02:22.855Z,2.40
2022-09-20T03:05:10.902Z,2.50
2022-09-20T03:08:03.169Z,2.40
2022-09-20T03:10:46.664Z,2.30
2022-09-20T03:13:31.499Z,2.00
2022-09-20T03:16:14.059Z,2.20
2022-09-20T03:18:56.191Z,2.20
2022-09-20T03:21:47.853Z,2.50
2022-09-20T03:24:36.385Z,2.40
2022-09-20T03:27:17.057Z,2.10
2022-09-20T03:30:05.236Z,2.20
2022-09-20T03:32:57.541Z,2.40
2022-09-20T03:35:47.653Z,2.30
2022-09-20T03:38:41.402Z,2.20
2022-09-20T03:41:40.863Z,2.40
2022-09-20T03:44:31.925Z,2.70
2022-09-20T03:47:19.446Z,2.60
2022-09-20T03:50:42.597Z,2.80
2022-09-20T03:54:05.977Z,3.10
2022-09-20T03:57:15.013Z,2.40
2022-09-20T04:00:09.608Z,2.70
2022-09-20T04:03:04.431Z,2.60
2022-09-20T04:05:52.957Z,2.40
2022-09-20T04:08:44.884Z,2.30
2022-09-20T04:11:27.504Z,2.40
2022-09-20T04:14:11.598Z,2.20
2022-09-20T04:16:53.796Z,2.40
2022-09-20T04:19:36.887Z,2.30
2022-09-20T04:22:12.107Z,2.10
2022-09-20T04:24:55.092Z,1.80
2022-09-20T04:27:35.008Z,2.00
2022-09-20T04:30:20.542Z,1.70
2022-09-20T04:33:01.663Z,1.90
2022-09-20T04:36:12.318Z,1.70
2022-09-20T04:41:51.060Z,2.30
2022-09-20T04:44:58.869Z,2.20
2022-09-20T04:48:17.218Z,2.60
2022-09-20T04:51:17.685Z,2.60
2022-09-20T04:54:31.689Z,2.80
2022-09-20T04:57:55.161Z,2.90
2022-09-20T05:00:34.802Z,3.20
2022-09-20T05:03:40.661Z,3.30
2022-09-20T05:06:50.822Z,3.30
2022-09-20T05:10:03.381Z,3.60
2022-09-20T05:13:05.607Z,3.40
2022-09-20T05:15:52.091Z,3.60
2022-09-20T05:19:17.422Z,3.90
2022-09-20T05:22:25.557Z,4.10
2022-09-20T05:25:22.891Z,4.80
2022-09-20T05:28:04.267Z,4.70
2022-09-20T05:30:42.243Z,5.00
2022-09-20T05:33:24.826Z,4.70
2022-09-20T05:36:11.071Z,5.10
2022-09-20T05:38:58.067Z,4.70
2022-09-20T05:41:42.390Z,5.00
2022-09-20T05:44:32.121Z,5.00
2022-09-20T05:47:18.336Z,5.30
2022-09-20T05:50:11.197Z,5.20
2022-09-20T05:52:58.720Z,5.00
2022-09-20T05:56:03.552Z,5.50
2022-09-20T05:58:58.859Z,5.70
2022-09-20T06:01:41.168Z,5.70
2022-09-20T06:04:21.215Z,5.40
2022-09-20T06:07:04.374Z,4.80
2022-09-20T06:10:01.739Z,5.20
2022-09-20T06:12:53.831Z,4.30
2022-09-20T06:15:34.629Z,5.00
2022-09-20T06:18:23.924Z,5.20
2022-09-20T06:21:15.209Z,5.00
2022-09-20T06:23:48.611Z,5.20
2022-09-20T06:26:25.350Z,4.90
2022-09-20T06:29:01.939Z,5.10
2022-09-20T06:31:34.828Z,5.80
2022-09-20T06:34:14.771Z,5.70
2022-09-20T06:37:09.977Z,5.20
2022-09-20T06:40:08.753Z,5.30
2022-09-20T06:42:44.828Z,5.70
2022-09-20T06:45:17.819Z,5.30
2022-09-20T06:47:50.499Z,5.60
2022-09-20T06:50:23.791Z,5.10
2022-09-20T06:52:56.879Z,5.00
2022-09-20T06:55:37.561Z,5.20
2022-09-20T06:58:10.741Z,4.50
2022-09-20T07:00:43.657Z,4.60
2022-09-20T07:03:16.407Z,4.50
2022-09-20T07:05:49.595Z,4.50
2022-09-20T07:08:22.202Z,4.10
2022-09-20T07:10:55.057Z,4.00
2022-09-20T07:13:27.792Z,4.30
2022-09-20T07:16:07.546Z,3.90
2022-09-20T07:18:41.404Z,4.50
2022-09-20T07:21:16.934Z,4.00
2022-09-20T07:23:50.269Z,4.30
2022-09-20T07:26:26.689Z,4.20
2022-09-20T07:29:00.409Z,4.30
2022-09-20T07:31:33.942Z,4.10
2022-09-20T07:34:06.745Z,4.00
2022-09-20T07:36:39.613Z,3.80
2022-09-20T07:39:12.675Z,4.40
2022-09-20T07:41:48.721Z,4.30
2022-09-20T07:44:25.665Z,4.30
2022-09-20T07:47:00.768Z,4.20
2022-09-20T07:49:33.625Z,3.40
2022-09-20T07:52:07.870Z,3.70
2022-09-20T07:54:40.722Z,3.60
2022-09-20T07:57:13.612Z,4.10
2022-09-20T07:59:46.495Z,3.50
2022-09-20T08:02:20.374Z,3.40
2022-09-20T08:04:53.249Z,3.20
2022-09-20T08:07:28.439Z,3.40
2022-09-20T08:10:01.269Z,3.40
2022-09-20T08:15:27.557Z,3.90
2022-09-20T08:18:00.342Z,3.80
2022-09-20T08:20:33.615Z,3.00
2022-09-20T08:23:22.938Z,3.20
2022-09-20T08:28:30.641Z,3.20
2022-09-20T08:31:09.154Z,3.10
2022-09-20T08:33:42.230Z,2.90
2022-09-20T08:36:17.611Z,2.50
2022-09-20T08:41:49.147Z,2.10
2022-09-20T08:44:26.617Z,2.00
2022-09-20T08:47:10.040Z,2.10
2022-09-20T08:49:46.027Z,2.60
2022-09-20T08:52:24.640Z,2.80
2022-09-20T08:54:58.757Z,2.70
2022-09-20T08:57:35.763Z,2.70
2022-09-20T09:00:17.928Z,2.90
2022-09-20T09:02:55.338Z,2.40
2022-09-20T09:05:37.602Z,2.10
2022-09-20T09:08:16.574Z,2.20
2022-09-20T09:10:55.053Z,2.40
2022-09-20T09:13:34.065Z,2.70
2022-09-20T09:16:15.498Z,3.20
2022-09-20T09:18:51.690Z,3.30
2022-09-20T09:21:27.867Z,2.90
2022-09-20T09:24:09.629Z,2.90
2022-09-20T09:26:44.561Z,3.00
2022-09-20T09:29:23.543Z,2.50
2022-09-20T09:31:56.981Z,2.40
2022-09-20T09:34:33.635Z,2.20
2022-09-20T09:37:06.414Z,2.20
2022-09-20T09:39:40.942Z,2.70
2022-09-20T09:42:29.091Z,2.80
2022-09-20T09:45:27.180Z,2.90
2022-09-20T09:48:01.985Z,2.90
2022-09-20T09:50:36.645Z,2.40
2022-09-20T09:53:16.695Z,2.10
2022-09-20T09:56:14.550Z,2.30
2022-09-20T09:59:10.878Z,2.50
2022-09-20T10:01:50.909Z,2.40
2022-09-20T10:04:31.386Z,2.10
2022-09-20T10:10:05.110Z,2.10
2022-09-20T10:12:55.063Z,2.40
2022-09-20T10:15:42.769Z,2.60
2022-09-20T10:18:39.783Z,2.50
2022-09-20T10:21:26.437Z,2.30
2022-09-20T10:24:13.507Z,2.40
2022-09-20T10:27:08.898Z,1.80
2022-09-20T10:29:58.225Z,2.00
2022-09-20T10:32:47.608Z,2.10
2022-09-20T10:35:31.964Z,1.70
2022-09-20T10:38:19.968Z,1.90
2022-09-20T10:41:34.721Z,1.90
2022-09-20T10:44:40.200Z,2.10
2022-09-20T10:47:20.537Z,2.10
2022-09-20T10:50:03.234Z,2.00
2022-09-20T10:52:59.797Z,1.90
2022-09-20T10:55:40.473Z,1.90
2022-09-20T10:59:19.385Z,1.90
2022-09-20T11:02:08.651Z,1.80
2022-09-20T11:05:30.479Z,1.90
2022-09-20T11:08:13.145Z,2.40
2022-09-20T11:10:51.929Z,2.10
2022-09-20T11:13:34.222Z,2.00
2022-09-20T11:16:11.641Z,1.30
2022-09-20T11:18:52.042Z,1.70
2022-09-20T11:21:29.427Z,1.50
2022-09-20T11:24:11.687Z,1.30
2022-09-20T11:26:49.264Z,1.40
2022-09-20T11:29:29.170Z,1.30
2022-09-20T11:32:13.393Z,1.50
2022-09-20T11:34:55.981Z,1.70
2022-09-20T11:37:37.873Z,1.70
2022-09-20T11:40:23.590Z,1.40
2022-09-20T11:43:01.666Z,1.60
2022-09-20T11:45:36.524Z,1.20
2022-09-20T11:48:18.307Z,1.30
2022-09-20T11:51:18.423Z,1.30
2022-09-20T11:54:12.597Z,1.30
2022-09-20T11:56:53.990Z,1.70
2022-09-20T11:59:36.287Z,1.60
2022-09-20T12:02:23.733Z,2.10
2022-09-20T12:04:57.001Z,1.70
2022-09-20T12:07:37.256Z,1.80
2022-09-20T12:13:01.463Z,2.30
2022-09-20T12:15:37.131Z,2.10
2022-09-20T12:18:47.691Z,2.10
2022-09-20T12:21:23.104Z,1.70
2022-09-20T12:24:23.800Z,1.70
2022-09-20T12:27:02.312Z,1.50
2022-09-20T12:30:20.374Z,2.00
2022-09-20T12:33:02.448Z,1.70
2022-09-20T12:36:17.389Z,1.40
2022-09-20T12:39:00.626Z,1.90
2022-09-20T12:41:48.873Z,1.90
2022-09-20T12:44:36.697Z,2.40
2022-09-20T12:47:20.359Z,1.90
2022-09-20T12:50:15.552Z,1.90
2022-09-20T12:52:58.890Z,2.90
2022-09-20T12:55:50.401Z,2.40
2022-09-20T12:58:34.052Z,2.30
2022-09-20T13:01:40.683Z,2.30
2022-09-20T13:04:57.053Z,2.10
2022-09-20T13:07:59.795Z,2.10
2022-09-20T13:10:45.890Z,1.70
2022-09-20T13:13:29.144Z,1.30
2022-09-20T13:16:05.838Z,1.70
2022-09-20T13:18:41.359Z,1.40
2022-09-20T13:21:14.636Z,1.30
2022-09-20T13:23:56.600Z,1.30
2022-09-20T13:26:35.145Z,1.40
2022-09-20T13:29:12.457Z,1.20
2022-09-20T13:31:45.163Z,1.70
2022-09-20T13:34:22.706Z,1.40
2022-09-20T13:36:59.693Z,1.30
2022-09-20T13:39:38.993Z,1.70
2022-09-20T13:44:50.255Z,1.40
2022-09-20T13:47:34.167Z,1.40
2022-09-20T13:50:23.132Z,1.40
2022-09-20T13:53:00.167Z,1.40
2022-09-20T13:55:38.857Z,1.30
2022-09-20T13:58:23.029Z,1.40
2022-09-20T14:00:59.333Z,1.50
2022-09-20T14:03:34.444Z,6.10
2022-09-20T14:06:13.936Z,1.60
2022-09-20T14:08:50.163Z,1.30
2022-09-20T14:11:28.305Z,1.50
2022-09-20T14:14:04.668Z,1.30
2022-09-20T14:16:41.514Z,1.40
2022-09-20T14:19:18.503Z,1.50
2022-09-20T14:21:52.647Z,1.40
2022-09-20T14:24:35.883Z,1.30
2022-09-20T14:27:21.149Z,1.50
2022-09-20T14:29:56.460Z,1.30
2022-09-20T14:32:51.896Z,1.40
2022-09-20T14:35:27.033Z,1.20
2022-09-20T14:38:03.835Z,1.40
2022-09-20T14:40:46.537Z,1.30
2022-09-20T14:43:31.632Z,1.50
2022-09-20T14:46:07.028Z,1.60
2022-09-20T14:48:42.117Z,1.70
2022-09-20T14:51:31.134Z,1.90
2022-09-20T14:54:28.200Z,1.30
2022-09-20T14:57:02.601Z,1.70
2022-09-20T14:59:43.681Z,1.50
2022-09-20T15:02:18.507Z,1.30
2022-09-20T15:05:00.429Z,1.60
2022-09-20T15:07:33.395Z,1.50
2022-09-20T15:10:08.021Z,1.70
2022-09-20T15:12:40.698Z,1.60
2022-09-20T15:15:19.041Z,1.90
2022-09-20T15:17:51.791Z,1.60
2022-09-20T15:20:25.400Z,1.70
2022-09-20T15:22:58.277Z,1.60
2022-09-20T15:25:31.392Z,1.60
2022-09-20T15:28:04.769Z,1.80
2022-09-20T15:30:37.647Z,1.60
2022-09-20T15:33:12.271Z,2.10
2022-09-20T15:35:46.397Z,2.20
2022-09-20T15:38:22.963Z,1.80
2022-09-20T15:40:56.149Z,1.80
2022-09-20T15:43:30.643Z,1.80
2022-09-20T15:46:20.816Z,1.50
2022-09-20T15:48:53.908Z,1.80
2022-09-20T15:51:27.255Z,1.40
2022-09-20T15:54:03.111Z,1.60
2022-09-20T15:56:38.275Z,1.50
2022-09-20T15:59:13.659Z,2.20
2022-09-20T16:01:48.411Z,1.80
2022-09-20T16:04:22.639Z,2.10
2022-09-20T16:06:55.512Z,2.60
2022-09-20T16:09:29.010Z,3.10
2022-09-20T16:12:01.909Z,3.20
2022-09-20T16:14:35.007Z,3.60
2022-09-20T16:17:08.892Z,2.60
2022-09-20T16:19:42.695Z,3.50
2022-09-20T16:22:16.512Z,4.00
2022-09-20T16:24:49.882Z,3.20
2022-09-20T16:27:22.788Z,3.00
2022-09-20T16:29:55.778Z,3.00
2022-09-20T16:32:29.550Z,2.60
2022-09-20T16:35:07.730Z,2.40
2022-09-20T16:37:41.504Z,2.50
2022-09-20T16:40:15.909Z,2.20
2022-09-20T16:42:52.361Z,2.00
2022-09-20T16:45:28.381Z,2.20
2022-09-20T16:48:08.449Z,2.80
2022-09-20T16:50:42.403Z,2.90
2022-09-20T16:53:16.041Z,2.60
2022-09-20T16:55:49.888Z,2.70
2022-09-20T16:58:27.774Z,2.40
2022-09-20T17:01:09.164Z,2.80
2022-09-20T17:03:42.089Z,3.20
2022-09-20T17:06:16.716Z,4.60
2022-09-20T17:08:58.134Z,4.10
2022-09-20T17:11:37.788Z,3.80
2022-09-20T17:14:11.953Z,3.00
2022-09-20T17:16:47.733Z,2.80
2022-09-20T17:19:22.492Z,2.40
2022-09-20T17:21:56.233Z,2.50
2022-09-20T17:24:31.342Z,2.60
2022-09-20T17:27:05.362Z,2.40
2022-09-20T17:29:39.093Z,2.30
2022-09-20T17:32:12.552Z,2.70
2022-09-20T17:34:45.577Z,2.50
2022-09-20T17:37:18.567Z,2.30
2022-09-20T17:39:51.476Z,2.60
2022-09-20T17:42:24.545Z,2.70
2022-09-20T17:44:57.237Z,2.60
2022-09-20T17:47:29.938Z,2.20
2022-09-20T17:50:02.686Z,3.40
2022-09-20T17:52:35.464Z,2.80
2022-09-20T17:55:11.247Z,2.60
2022-09-20T17:57:44.199Z,2.90
2022-09-20T18:00:18.921Z,2.60
2022-09-20T18:02:51.763Z,3.00
2022-09-20T18:05:24.605Z,4.10
2022-09-20T18:07:57.686Z,4.10
2022-09-20T18:10:30.570Z,3.50
2022-09-20T18:13:03.766Z,3.30
2022-09-20T18:15:37.802Z,3.60
2022-09-20T18:18:11.307Z,3.60
2022-09-20T18:20:44.161Z,2.80
2022-09-20T18:23:17.361Z,2.80
2022-09-20T18:26:08.057Z,2.80
2022-09-20T18:28:42.730Z,2.70
2022-09-20T18:31:18.967Z,3.00
2022-09-20T18:33:55.679Z,3.50
2022-09-20T18:36:30.238Z,3.40
2022-09-20T18:39:03.593Z,4.00
2022-09-20T18:41:39.668Z,3.80
2022-09-20T18:44:15.321Z,3.30
2022-09-20T18:46:53.302Z,4.00
2022-09-20T18:49:26.644Z,3.50
2022-09-20T18:52:00.257Z,4.00
2022-09-20T18:54:33.780Z,3.80
2022-09-20T18:57:10.441Z,4.00
2022-09-20T18:59:53.806Z,4.60
2022-09-20T19:02:53.058Z,4.70
2022-09-20T19:05:34.239Z,5.10
2022-09-20T19:08:23.100Z,5.70
2022-09-20T19:11:03.701Z,4.90
2022-09-20T19:16:30.942Z,5.50
2022-09-20T19:19:35.209Z,5.20
2022-09-20T19:22:21.661Z,5.00
2022-09-20T19:25:26.186Z,4.60
2022-09-20T19:27:59.790Z,4.30
2022-09-20T19:30:34.515Z,4.40
2022-09-20T19:33:13.705Z,4.40
2022-09-20T19:35:50.801Z,3.70
2022-09-20T19:38:38.778Z,3.60
2022-09-20T19:41:29.673Z,4.00
2022-09-20T19:44:28.268Z,4.00
2022-09-20T19:47:20.108Z,4.30
2022-09-20T19:49:56.835Z,4.20
2022-09-20T19:52:31.155Z,3.80
2022-09-20T19:55:06.112Z,3.80
2022-09-20T19:57:47.421Z,4.10
2022-09-20T20:00:24.346Z,3.90
2022-09-20T20:02:58.769Z,3.70
2022-09-20T20:05:33.418Z,4.10
2022-09-20T20:08:18.896Z,4.20
2022-09-20T20:11:04.529Z,3.80
2022-09-20T20:14:04.295Z,4.10
2022-09-20T20:16:52.137Z,4.60
2022-09-20T20:19:48.870Z,4.00
2022-09-20T20:22:39.283Z,4.20
2022-09-20T20:25:27.234Z,4.40
2022-09-20T20:27:59.886Z,3.80
2022-09-20T20:30:33.090Z,4.40
2022-09-20T20:33:07.676Z,4.50
2022-09-20T20:35:40.500Z,4.50
2022-09-20T20:38:13.181Z,4.10
2022-09-20T20:40:45.857Z,3.70
2022-09-20T20:43:18.634Z,3.90
2022-09-20T20:45:55.530Z,4.40
2022-09-20T20:48:28.717Z,3.60
2022-09-20T20:51:08.105Z,3.70
2022-09-20T20:53:47.150Z,4.50
2022-09-20T20:56:22.201Z,3.50
2022-09-20T20:58:55.188Z,3.80
2022-09-20T21:01:30.960Z,3.60
2022-09-20T21:04:05.095Z,4.30
2022-09-20T21:06:40.883Z,3.30
2022-09-20T21:09:13.984Z,3.60
2022-09-20T21:11:48.629Z,3.60
2022-09-20T21:14:21.432Z,3.70
2022-09-20T21:16:55.827Z,3.70
2022-09-20T21:19:28.876Z,4.10
2022-09-20T21:22:01.574Z,3.60
2022-09-20T21:24:34.478Z,3.50
2022-09-20T21:27:07.574Z,3.40
2022-09-20T21:29:40.246Z,3.50
2022-09-20T21:32:14.576Z,3.40
2022-09-20T21:34:47.245Z,3.40
2022-09-20T21:37:20.026Z,4.10
2022-09-20T21:39:54.243Z,3.30
2022-09-20T21:42:29.076Z,3.50
2022-09-20T21:45:02.063Z,4.00
2022-09-20T21:47:35.058Z,3.80
2022-09-20T21:50:09.525Z,4.30
2022-09-20T21:52:46.644Z,3.80
2022-09-20T21:55:19.643Z,4.10
2022-09-20T21:57:52.426Z,3.60
2022-09-20T22:00:25.378Z,3.70
2022-09-20T22:03:01.375Z,4.30
2022-09-20T22:05:34.876Z,4.00
2022-09-20T22:08:07.954Z,4.30
2022-09-20T22:10:40.741Z,4.60
2022-09-20T22:13:13.415Z,3.80
2022-09-20T22:15:46.329Z,4.20
2022-09-20T22:18:19.292Z,4.60
2022-09-20T22:21:02.409Z,4.00
2022-09-20T22:23:35.663Z,4.70
2022-09-20T22:26:11.668Z,4.40
2022-09-20T22:28:45.288Z,4.60
2022-09-20T22:31:22.473Z,4.50
2022-09-20T22:33:58.039Z,4.70
2022-09-20T22:36:34.309Z,4.30
2022-09-20T22:39:08.730Z,4.40
2022-09-20T22:41:42.896Z,4.70
2022-09-20T22:44:15.681Z,5.20
2022-09-20T22:46:48.359Z,4.40
2022-09-20T22:49:21.054Z,4.70
2022-09-20T22:51:53.928Z,5.00
2022-09-20T22:54:26.621Z,5.00
2022-09-20T22:56:59.389Z,4.70
2022-09-20T22:59:32.848Z,4.80
2022-09-20T23:02:06.012Z,4.60
2022-09-20T23:04:38.755Z,4.60
2022-09-20T23:07:11.436Z,4.70
2022-09-20T23:09:44.628Z,5.10
2022-09-20T23:12:17.418Z,4.80
2022-09-20T23:14:50.215Z,5.50
2022-09-20T23:17:22.980Z,4.90
2022-09-20T23:19:55.778Z,5.10
2022-09-20T23:22:28.463Z,5.20
2022-09-20T23:25:01.545Z,4.70
2022-09-20T23:27:34.288Z,5.00
2022-09-20T23:30:08.992Z,4.70
2022-09-20T23:32:41.926Z,5.50
2022-09-20T23:35:14.816Z,4.70
2022-09-20T23:37:47.565Z,5.40
2022-09-20T23:40:20.836Z,5.10
2022-09-20T23:42:53.549Z,4.80
2022-09-20T23:45:26.463Z,5.50
2022-09-20T23:47:59.441Z,4.40
2022-09-20T23:50:32.219Z,5.70
2022-09-20T23:53:04.909Z,5.00
2022-09-20T23:55:37.586Z,5.20
2022-09-20T23:58:10.463Z,5.70
